Time;durP1;ratioP1;P1;durP2;ratioP2;P2;SDS_P1;SDS_P2;PMS_P1;PMS_P2;Temp;Humidity;BMP_temperature;BMP_pressure;BME280_temperature;BME280_humidity;BME280_pressure;Samples;Min_cycle;Max_cycle;Signal;HPM_P1;HPM_P2
2022/01/20 00:00:31;;;;;;;25.58;11.68;;;;;;;3.06;56.65;99051.59;4489318;31;20148;-84
2022/01/20 00:02:59;;;;;;;30.67;11.88;;;;;;;3.00;56.74;99051.72;4492119;31;75250;-83
2022/01/20 00:05:41;;;;;;;29.50;11.75;;;;;;;3.08;56.79;99051.56;4497049;31;20088;-84
2022/01/20 00:27:33;;;;;;;30.10;12.77;;;;;;;2.85;56.01;99044.22;4405720;32;20167;-85
2022/01/20 00:32:37;;;;;;;26.40;11.43;;;;;;;2.83;56.26;99035.56;4405572;32;20110;-86
2022/01/20 00:37:31;;;;;;;31.33;12.25;;;;;;;2.78;56.45;99035.66;4407058;32;20133;-86
2022/01/20 00:39:57;;;;;;;33.45;13.18;;;;;;;2.70;56.68;99041.00;4407003;32;20094;-86
2022/01/20 00:42:24;;;;;;;28.50;12.00;;;;;;;2.68;56.80;99047.13;4407019;32;20115;-86
2022/01/20 00:44:50;;;;;;;29.55;12.55;;;;;;;2.73;56.75;99046.16;4406820;32;20157;-85
2022/01/20 00:47:16;;;;;;;28.85;11.75;;;;;;;2.67;56.72;99045.44;4411246;32;20148;-85
2022/01/20 00:49:43;;;;;;;29.83;12.55;;;;;;;2.73;56.62;99047.91;4422290;32;20146;-86
2022/01/20 00:52:09;;;;;;;29.23;11.63;;;;;;;2.75;56.48;99040.94;4422134;32;20158;-85
2022/01/20 00:54:35;;;;;;;29.95;12.20;;;;;;;2.78;56.35;99045.22;4422111;32;20117;-85
2022/01/20 00:57:01;;;;;;;29.73;12.98;;;;;;;2.73;56.48;99050.50;4422173;32;20537;-85
2022/01/20 00:59:28;;;;;;;33.35;12.55;;;;;;;2.75;56.58;99059.12;4422064;32;20118;-85
2022/01/20 01:01:54;;;;;;;31.08;12.20;;;;;;;2.48;57.17;99058.75;4462074;32;20160;-85
2022/01/20 01:04:20;;;;;;;31.62;12.50;;;;;;;2.64;56.95;99048.06;4486181;32;20084;-85
2022/01/20 01:09:31;;;;;;;29.87;12.18;;;;;;;2.68;57.21;99055.78;4486311;32;20131;-85
2022/01/20 01:12:03;;;;;;;25.05;11.68;;;;;;;2.71;57.33;99066.13;4486201;32;20114;-85
2022/01/20 01:14:31;;;;;;;30.48;10.77;;;;;;;2.69;57.53;99062.72;4486139;32;20517;-85
2022/01/20 01:24:34;;;;;;;;;;;;;;;3.12;57.52;99055.81;4486235;32;19976;-84
2022/01/20 01:27:00;;;;;;;;;;;;;;;3.27;57.35;99052.06;4485120;32;19980;-85
2022/01/20 01:30:04;;;;;;;;;;;;;;;3.41;57.25;99046.56;4486436;32;19979;-85
2022/01/20 01:32:13;;;;;;;;;;;;;;;3.53;57.10;99028.03;4485918;32;19980;-85
2022/01/20 01:34:41;;;;;;;;;;;;;;;3.69;56.75;99029.44;4472476;32;19984;-85
2022/01/20 01:37:24;;;;;;;;;;;;;;;3.82;56.56;99021.31;4486373;32;20465;-84
2022/01/20 01:39:49;;;;;;;;;;;;;;;3.93;56.39;99019.31;4486208;32;19975;-85
2022/01/20 01:42:14;;;;;;;;;;;;;;;4.01;55.72;99004.34;4486268;32;19998;-85
2022/01/20 01:44:39;;;;;;;;;;;;;;;4.17;55.20;99001.34;4487926;32;19988;-85
2022/01/20 01:47:05;;;;;;;;;;;;;;;4.21;55.17;99005.59;4488324;32;20016;-84
2022/01/20 01:49:30;;;;;;;;;;;;;;;4.17;54.96;98989.16;4488295;32;20041;-85
2022/01/20 01:51:55;;;;;;;;;;;;;;;4.23;54.88;98998.59;4488262;32;20296;-85
2022/01/20 01:54:20;;;;;;;;;;;;;;;4.17;55.06;98993.53;4488367;32;19983;-84
2022/01/20 01:56:46;;;;;;;;;;;;;;;4.22;54.93;98979.50;4488284;32;19994;-85
2022/01/20 01:59:12;;;;;;;;;;;;;;;3.79;55.94;98977.13;4473893;32;19968;-85
2022/01/20 02:01:38;;;;;;;;;;;;;;;4.09;55.09;98970.25;4488304;32;20231;-85
2022/01/20 02:04:17;;;;;;;;;;;;;;;4.12;55.09;98960.62;4488192;32;19972;-85
2022/01/20 02:19:55;;;;;;;;;;;;;;;4.57;53.99;98914.25;4488244;32;20353;-85
2022/01/20 02:22:20;;;;;;;;;;;;;;;4.48;53.85;98900.56;4488075;32;20327;-86
2022/01/20 02:24:45;;;;;;;;;;;;;;;4.46;53.81;98911.91;4487959;32;19998;-85
2022/01/20 02:27:11;;;;;;;;;;;;;;;4.31;53.80;98895.81;4473681;32;20027;-85
2022/01/20 02:29:36;;;;;;;;;;;;;;;4.33;53.92;98898.38;4488052;32;20235;-85
2022/01/20 02:32:01;;;;;;;;;;;;;;;4.21;54.28;98894.34;4473678;32;19972;-85
2022/01/20 02:34:29;;;;;;;;;;;;;;;4.13;54.09;98891.94;4488016;32;19995;-85
2022/01/20 02:36:56;;;;;;;;;;;;;;;4.04;54.45;98893.94;4488062;32;19998;-85
2022/01/20 02:44:56;;;;;;;;;;;;;;;3.92;54.49;98888.16;4487957;32;20349;-84
2022/01/20 02:47:26;;;;;;;;;;;;;;;3.94;54.59;98877.69;4488040;32;20479;-85
2022/01/20 02:49:51;;;;;;;;;;;;;;;3.91;54.59;98881.22;4488019;32;19995;-86
2022/01/20 02:52:17;;;;;;;;;;;;;;;3.77;54.89;98872.03;4487845;32;19974;-87
2022/01/20 02:54:42;;;;;;;;;;;;;;;3.68;55.05;98866.16;4486725;32;19987;-86
2022/01/20 02:57:08;;;;;;;;;;;;;;;3.69;55.78;98872.22;4487912;32;20017;-85
2022/01/20 02:59:36;;;;;;;;;;;;;;;3.66;55.75;98864.50;4473547;32;20558;-85
2022/01/20 03:02:03;;;;;;;;;;;;;;;3.65;55.61;98875.81;4487851;32;20023;-86
2022/01/20 03:04:29;;;;;;;;;;;;;;;3.57;55.46;98854.31;4487645;32;19980;-86
2022/01/20 03:06:55;;;;;;;;;;;;;;;3.52;55.50;98846.62;4487591;31;19968;-85
2022/01/20 03:09:20;;;;;;;;;;;;;;;3.51;55.71;98844.91;4487840;32;20007;-85
2022/01/20 03:11:46;;;;;;;;;;;;;;;3.53;55.61;98845.72;4487723;32;19976;-85
2022/01/20 03:14:11;;;;;;;;;;;;;;;3.44;55.48;98839.00;4487773;32;20009;-85
2022/01/20 03:16:36;;;;;;;;;;;;;;;3.44;56.03;98827.72;4487687;32;19995;-85
2022/01/20 03:19:02;;;;;;;;;;;;;;;3.43;56.42;98837.28;4487758;32;19968;-86
2022/01/20 03:21:27;;;;;;;;;;;;;;;3.48;56.56;98821.56;4487674;32;19972;-86
2022/01/20 03:23:52;;;;;;;;;;;;;;;3.45;56.39;98819.03;4487523;32;19998;-85
2022/01/20 03:26:17;;;;;;;;;;;;;;;3.47;56.49;98818.06;4487662;32;20009;-86
2022/01/20 03:28:43;;;;;;;;;;;;;;;3.44;55.68;98807.75;4473375;32;20283;-86
2022/01/20 03:31:08;;;;;;;;;;;;;;;3.31;55.79;98809.81;4487634;32;20001;-86
2022/01/20 03:33:33;;;;;;;;;;;;;;;3.31;55.73;98807.19;4473445;32;20026;-86
2022/01/20 03:35:58;;;;;;;;;;;;;;;3.24;56.51;98813.44;4487630;32;19980;-85
2022/01/20 03:38:24;;;;;;;;;;;;;;;3.10;56.34;98808.56;4487730;32;20035;-86
2022/01/20 03:40:50;;;;;;;;;;;;;;;3.12;56.32;98805.94;4487642;32;20019;-85
2022/01/20 03:43:15;;;;;;;;;;;;;;;3.02;56.92;98813.13;4487639;32;20357;-86
2022/01/20 03:45:42;;;;;;;;;;;;;;;2.92;56.94;98802.06;4487591;32;19976;-85
2022/01/20 03:48:10;;;;;;;;;;;;;;;2.92;56.89;98811.63;4473299;32;19995;-86
2022/01/20 03:53:20;;;;;;;;;;;;;;;3.04;57.36;98789.66;4487596;32;20369;-85
2022/01/20 03:55:45;;;;;;;;;;;;;;;2.99;58.40;98794.13;4473355;32;19984;-85
2022/01/20 03:58:11;;;;;;;;;;;;;;;3.06;58.86;98780.91;4487370;32;19975;-85
2022/01/20 04:00:36;;;;;;;;;;;;;;;3.18;58.53;98782.34;4487373;32;19987;-84
2022/01/20 04:03:01;;;;;;;;;;;;;;;3.06;58.82;98786.12;4487406;32;20020;-85
2022/01/20 04:05:27;;;;;;;;;;;;;;;3.03;59.08;98795.75;4486935;32;19980;-85
2022/01/20 04:07:52;;;;;;;;;;;;;;;3.14;58.77;98785.94;4487193;32;20337;-86
2022/01/20 04:10:17;;;;;;;;;;;;;;;3.32;58.09;98775.06;4486134;32;19963;-85
2022/01/20 04:12:42;;;;;;;;;;;;;;;3.08;58.85;98775.69;4473004;32;19980;-85
2022/01/20 04:15:09;;;;;;;;;;;;;;;3.31;58.23;98780.31;4487368;32;19968;-84
2022/01/20 04:17:39;;;;;;;;;;;;;;;3.35;57.74;98776.72;4487263;32;20274;-85
2022/01/20 04:20:04;;;;;;;;;;;;;;;3.37;57.70;98785.38;4487378;32;20027;-85
2022/01/20 04:22:30;;;;;;;;;;;;;;;3.48;56.86;98777.28;4487259;32;19975;-85
2022/01/20 04:24:56;;;;;;;;;;;;;;;3.39;57.51;98767.09;4487090;32;19972;-85
2022/01/20 04:27:21;;;;;;;;;;;;;;;3.56;57.20;98769.28;4487253;32;19972;-85
2022/01/20 04:29:46;;;;;;;;;;;;;;;3.61;57.09;98767.38;4487168;32;19979;-86
2022/01/20 04:32:11;;;;;;;;;;;;;;;3.41;57.79;98767.91;4487124;32;19980;-85
2022/01/20 04:34:37;;;;;;;;;;;;;;;3.45;56.59;98778.19;4487238;32;20311;-85
2022/01/20 04:37:05;;;;;;;;;;;;;;;3.51;56.64;98775.44;4487065;32;20270;-86
2022/01/20 04:39:32;;;;;;;;;;;;;;;3.60;56.21;98776.09;4487205;32;20262;-85
2022/01/20 04:41:58;;;;;;;;;;;;;;;3.35;57.62;98779.34;4487010;32;19995;-85
2022/01/20 04:44:48;;;;;;;;;;;;;;;3.54;57.34;98795.34;4486873;32;19980;-86
2022/01/20 04:57:50;;;;;;;;;;;;;;;3.30;58.86;98774.25;4474936;32;19991;-85
2022/01/20 05:00:16;;;;;;;;;;;;;;;3.44;58.68;98776.50;4486851;32;19976;-86
2022/01/20 05:02:41;;;;;;;;;;;;;;;3.56;58.33;98771.88;4486758;32;20303;-85
2022/01/20 05:05:08;;;;;;;;;;;;;;;3.65;57.99;98775.09;4486507;31;19968;-85
2022/01/20 05:07:33;;;;;;;;;;;;;;;3.63;57.96;98781.22;4472553;32;19967;-84
2022/01/20 05:09:59;;;;;;;;;;;;;;;3.34;58.58;98781.09;4486640;32;20034;-84
2022/01/20 05:12:39;;;;;;;;;;;;;;;3.50;58.45;98775.50;4486641;32;20103;-85
2022/01/20 05:15:04;;;;;;;;;;;;;;;3.48;58.75;98779.88;4474122;32;19979;-85
2022/01/20 05:17:29;;;;;;;;;;;;;;;3.49;58.76;98781.59;4486652;32;19996;-86
2022/01/20 05:19:55;;;;;;;;;;;;;;;3.59;58.08;98772.63;4488406;32;20292;-86
2022/01/20 05:22:20;;;;;;;;;;;;;;;3.80;57.51;98781.63;4488433;32;20031;-86
2022/01/20 05:24:46;;;;;;;;;;;;;;;3.83;57.34;98778.94;4488456;32;19994;-85
2022/01/20 05:27:11;;;;;;;;;;;;;;;3.87;57.20;98779.72;4488633;32;20023;-85
2022/01/20 05:29:36;;;;;;;;;;;;;;;3.54;58.54;98782.34;4488511;32;19968;-84
2022/01/20 05:32:02;;;;;;;;;;;;;;;3.66;58.62;98761.16;4488496;32;19991;-84
2022/01/20 05:34:27;;;;;;;;;;;;;;;3.64;58.77;98768.16;4488511;32;19980;-85
2022/01/20 05:36:52;;;;;;;;;;;;;;;3.60;58.77;98771.75;4488482;32;19976;-85
2022/01/20 05:39:17;;;;;;;;;;;;;;;3.57;59.15;98789.19;4488418;32;19968;-88
2022/01/20 05:41:43;;;;;;;;;;;;;;;3.52;59.10;98776.31;4487257;32;19994;-87
2022/01/20 05:44:08;;;;;;;;;;;;;;;3.67;58.85;98777.62;4474160;32;20295;-88
2022/01/20 05:46:38;;;;;;;;;;;;;;;3.85;58.25;98766.72;4488410;32;20026;-86
2022/01/20 05:49:10;;;;;;;;;;;;;;;3.94;57.84;98766.47;4488392;32;20031;-86
2022/01/20 05:51:36;;;;;;;;;;;;;;;3.82;58.23;98764.19;4488078;32;20636;-84
2022/01/20 05:54:01;;;;;;;;;;;;;;;4.05;57.50;98768.75;4488434;32;19976;-85
2022/01/20 05:56:27;;;;;;;;;;;;;;;3.99;57.84;98765.47;4473930;32;19990;-84
2022/01/20 05:58:52;;;;;;;;;;;;;;;4.12;57.45;98759.03;4487838;31;19976;-83
2022/01/20 06:01:17;;;;;;;;;;;;;;;4.23;57.08;98759.56;4492039;31;19980;-83
2022/01/20 06:03:42;;;;;;;;;;;;;;;4.31;56.81;98764.56;4503868;31;19994;-84
2022/01/20 06:06:08;;;;;;;;;;;;;;;4.37;56.49;98768.75;4503665;31;19971;-82
2022/01/20 06:08:34;;;;;;;;;;;;;;;4.39;56.21;98773.00;4499835;31;19986;-84
2022/01/20 06:11:00;;;;;;;;;;;;;;;4.49;55.85;98770.97;4484035;32;20046;-85
2022/01/20 06:13:25;;;;;;;;;;;;;;;4.50;55.41;98763.09;4487662;32;19990;-83
2022/01/20 06:15:51;;;;;;;;;;;;;;;4.47;55.49;98759.72;4473440;31;20015;-82
2022/01/20 06:18:17;;;;;;;;;;;;;;;4.28;56.32;98764.63;4488059;31;19975;-82
2022/01/20 06:20:43;;;;;;;;;;;;;;;4.30;56.54;98749.81;4488926;31;20006;-83
2022/01/20 06:23:08;;;;;;;;;;;;;;;4.32;56.42;98753.22;4488633;31;20044;-79
2022/01/20 06:25:34;;;;;;;;;;;;;;;4.49;55.86;98752.72;4491856;31;19995;-84
2022/01/20 06:27:59;;;;;;;;;;;;;;;4.62;55.17;98748.00;4476008;32;19975;-83
2022/01/20 06:30:25;;;;;;;;;;;;;;;4.67;54.92;98752.13;4487529;32;20228;-82
2022/01/20 06:32:50;;;;;;;;;;;;;;;4.78;54.43;98750.97;4487272;31;20044;-82
2022/01/20 06:35:16;;;;;;;;;;;;;;;4.69;54.50;98749.47;4488143;31;19991;-82
2022/01/20 06:37:41;;;;;;;;;;;;;;;4.90;54.08;98758.37;4487701;31;20331;-82
2022/01/20 06:40:07;;;;;;;;;;;;;;;4.75;54.56;98764.94;4479292;32;20014;-82
2022/01/20 06:42:33;;;;;;;;;;;;;;;4.80;54.06;98768.28;4487658;31;20405;-82
2022/01/20 06:44:58;;;;;;;;;;;;;;;4.68;53.98;98766.91;4487714;31;19982;-82
2022/01/20 06:47:23;;;;;;;;;;;;;;;4.71;53.98;98765.94;4486576;32;20056;-83
2022/01/20 06:49:49;;;;;;;;;;;;;;;4.79;53.44;98770.91;4487727;32;20016;-83
2022/01/20 06:52:14;;;;;;;;;;;;;;;4.80;53.67;98778.72;4487638;31;20038;-83
2022/01/20 06:54:39;;;;;;;;;;;;;;;4.84;53.74;98767.25;4486473;32;20015;-83
2022/01/20 06:57:04;;;;;;;;;;;;;;;4.84;53.74;98761.19;4488072;32;20296;-83
2022/01/20 06:59:30;;;;;;;;;;;;;;;4.89;53.75;98752.31;4487567;31;19999;-83
2022/01/20 07:01:56;;;;;;;;;;;;;;;4.89;53.70;98756.69;4487609;31;19987;-83
2022/01/20 07:04:22;;;;;;;;;;;;;;;4.60;54.62;98747.19;4487591;31;20020;-83
2022/01/20 07:06:47;;;;;;;;;;;;;;;4.89;53.87;98739.28;4487829;31;19964;-84
2022/01/20 07:09:12;;;;;;;;;;;;;;;4.70;54.25;98733.78;4461298;32;20259;-85
2022/01/20 07:11:38;;;;;;;;;;;;;;;4.73;54.45;98741.53;4487580;32;19976;-84
2022/01/20 07:14:03;;;;;;;;;;;;;;;4.88;53.96;98737.56;4483931;32;19980;-86
2022/01/20 07:16:29;;;;;;;;;;;;;;;4.83;54.03;98744.69;4487430;32;20023;-84
2022/01/20 07:18:54;;;;;;;;;;;;;;;5.13;53.26;98739.38;4487915;32;20302;-84
2022/01/20 07:21:19;;;;;;;;;;;;;;;5.01;53.54;98738.00;4477740;32;19988;-85
2022/01/20 07:23:45;;;;;;;;;;;;;;;5.32;52.85;98727.38;4487395;32;19995;-84
2022/01/20 07:26:11;;;;;;;;;;;;;;;5.46;52.34;98728.69;4487345;31;19998;-86
2022/01/20 07:28:36;;;;;;;;;;;;;;;5.58;52.00;98719.56;4486780;32;19980;-85
2022/01/20 07:31:01;;;;;;;;;;;;;;;5.63;51.93;98712.41;4487550;31;19976;-84
2022/01/20 07:33:27;;;;;;;;;;;;;;;5.79;51.62;98715.31;4467343;32;20247;-83
2022/01/20 07:35:52;;;;;;;;;;;;;;;5.80;51.41;98717.03;4487010;31;20333;-85
2022/01/20 07:38:17;;;;;;;;;;;;;;;5.95;50.89;98721.75;4487666;31;19999;-86
2022/01/20 07:40:43;;;;;;;;;;;;;;;5.95;50.87;98713.91;4473507;32;19988;-86
2022/01/20 07:43:08;;;;;;;;;;;;;;;6.02;50.68;98712.75;4487140;32;19967;-85
2022/01/20 07:45:33;;;;;;;;;;;;;;;6.06;50.58;98716.09;4486859;31;19972;-86
2022/01/20 07:47:58;;;;;;;;;;;;;;;6.18;50.18;98706.94;4487387;31;19964;-79
2022/01/20 07:50:24;;;;;;;;;;;;;;;6.19;50.18;98704.28;4487204;31;20077;-81
2022/01/20 07:52:49;;;;;;;;;;;;;;;6.21;49.80;98705.06;4487026;31;19989;-84
2022/01/20 07:55:14;;;;;;;;;;;;;;;6.40;49.61;98697.34;4486956;31;20277;-84
2022/01/20 07:57:40;;;;;;;;;;;;;;;6.50;49.40;98698.69;4485818;32;19993;-83
2022/01/20 08:00:06;;;;;;;;;;;;;;;6.37;49.43;98697.47;4487474;31;20353;-84
2022/01/20 08:02:32;;;;;;;;;;;;;;;6.19;49.54;98706.03;4476124;32;19972;-82
2022/01/20 08:04:57;;;;;;;;;;;;;;;6.54;48.88;98712.50;4487062;32;20308;-82
2022/01/20 08:07:23;;;;;;;;;;;;;;;6.51;48.78;98694.34;4487330;32;19979;-82
2022/01/20 08:09:53;;;;;;;;;;;;;;;6.92;47.88;98707.50;4487258;32;19984;-82
2022/01/20 08:12:19;;;;;;;;;;;;;;;7.07;47.50;98700.81;4487366;32;20415;-82
2022/01/20 08:14:44;;;;;;;;;;;;;;;7.22;47.30;98708.00;4472930;32;19976;-82
2022/01/20 08:17:10;;;;;;;;;;;;;;;7.18;47.08;98709.03;4472959;32;20286;-82
2022/01/20 08:19:35;;;;;;;;;;;;;;;7.45;46.63;98706.16;4472583;32;19988;-82
2022/01/20 08:22:00;;;;;;;;;;;;;;;7.51;46.47;98711.13;4486918;32;19968;-83
2022/01/20 08:24:26;;;;;;;;;;;;;;;7.46;46.24;98703.47;4486689;32;19968;-82
2022/01/20 08:26:51;;;;;;;;;;;;;;;7.53;46.12;98708.44;4486914;32;19969;-83
2022/01/20 08:29:16;;;;;;;;;;;;;;;7.53;46.06;98701.44;4486717;32;20010;-83
2022/01/20 08:31:41;;;;;;;;;;;;;;;7.34;46.23;98705.75;4472437;32;20032;-82
2022/01/20 08:34:06;;;;;;;;;;;;;;;7.55;46.02;98704.87;4486792;32;19968;-83
2022/01/20 08:36:32;;;;;;;;;;;;;;;7.40;46.24;98705.53;4486644;32;20325;-83
2022/01/20 08:38:57;;;;;;;;;;;;;;;7.27;46.50;98713.91;4472303;32;20132;-83
2022/01/20 08:41:22;;;;;;;;;;;;;;;7.38;46.44;98717.81;4486715;32;19990;-83
2022/01/20 08:43:47;;;;;;;;;;;;;;;7.50;46.26;98709.44;4486510;32;19975;-82
2022/01/20 08:46:13;;;;;;;;;;;;;;;7.51;46.29;98703.28;4486513;32;19990;-83
2022/01/20 08:48:39;;;;;;;;;;;;;;;7.54;46.13;98702.31;4472154;32;19980;-81
2022/01/20 08:51:05;;;;;;;;;;;;;;;7.56;46.04;98696.06;4471931;32;19975;-82
2022/01/20 08:53:31;;;;;;;;;;;;;;;7.42;46.11;98693.22;4486318;32;19979;-82
2022/01/20 08:55:57;;;;;;;;;;;;;;;7.45;46.19;98696.53;4486495;32;19993;-83
2022/01/20 08:58:22;;;;;;;;;;;;;;;7.52;46.19;98702.38;4472275;32;19987;-83
2022/01/20 09:00:47;;;;;;;;;;;;;;;7.42;45.87;98701.06;4486292;32;19976;-83
2022/01/20 09:03:13;;;;;;;;;;;;;;;7.74;45.68;98711.91;4472000;32;19976;-83
2022/01/20 09:05:38;;;;;;;;;;;;;;;7.80;45.50;98720.37;4471983;32;19999;-84
2022/01/20 09:08:04;;;;;;;;;;;;;;;7.93;45.18;98725.91;4486407;32;19986;-85
2022/01/20 09:10:37;;;;;;;;;;;;;;;7.74;45.35;98725.84;4472274;32;19990;-86
2022/01/20 09:15:46;;;;;;;;;;;;;;;7.59;45.74;98732.66;4486345;32;20390;-84
2022/01/20 09:18:12;;;;;;;;;;;;;;;7.62;45.96;98739.53;4486164;32;19976;-82
2022/01/20 09:20:38;;;;;;;;;;;;;;;7.80;45.56;98748.34;4485871;32;20002;-87
2022/01/20 09:23:03;;;;;;;;;;;;;;;7.57;46.18;98742.34;4486307;32;19972;-84
2022/01/20 09:25:28;;;;;;;;;;;;;;;7.66;46.18;98743.72;4485773;32;19980;-85
2022/01/20 09:27:55;;;;;;;;;;;;;;;7.72;46.13;98745.22;4486217;32;20021;-83
2022/01/20 09:30:22;;;;;;;;;;;;;;;7.66;46.45;98735.84;4486126;32;20006;-83
2022/01/20 09:32:59;;;;;;;;;;;;;;;7.74;46.67;98743.37;4485867;32;19972;-81
2022/01/20 09:35:29;;;;;;;;;;;;;;;7.56;47.02;98739.78;4486089;32;20028;-80
2022/01/20 09:37:54;;;;;;;;;;;;;;;7.75;46.89;98735.44;4471695;32;19999;-82
2022/01/20 09:40:20;;;;;;;;;;;;;;;7.73;46.65;98728.56;4485835;32;19972;-82
2022/01/20 09:42:45;;;;;;;;;;;;;;;7.73;46.98;98726.78;4471460;32;20387;-81
2022/01/20 09:45:10;;;;;;;;;;;;;;;7.53;47.82;98734.66;4485887;32;19979;-81
2022/01/20 09:47:36;;;;;;;;;;;;;;;7.83;47.90;98728.09;4485917;32;20009;-79
2022/01/20 09:50:02;;;;;;;;;;;;;;;7.80;48.26;98728.25;4471675;32;20027;-76
2022/01/20 09:52:28;;;;;;;;;;;;;;;7.67;49.27;98743.66;4458150;32;19986;-77
2022/01/20 09:54:54;;;;;;;;;;;;;;;7.64;49.51;98735.91;4471441;32;20028;-80
2022/01/20 09:57:19;;;;;;;;;;;;;;;7.58;50.06;98733.56;4485690;32;20312;-86
2022/01/20 09:59:45;;;;;;;;;;;;;;;7.37;51.44;98737.09;4485386;32;20011;-80
2022/01/20 10:02:17;;;;;;;;;;;;;;;7.19;52.17;98733.50;4458317;32;19968;-83
2022/01/20 10:04:43;;;;;;;;;;;;;;;7.01;53.23;98730.72;4473073;32;19988;-79
2022/01/20 10:07:09;;;;;;;;;;;;;;;7.20;53.28;98725.53;4487819;32;20023;-82
2022/01/20 10:09:37;;;;;;;;;;;;;;;7.28;53.28;98726.09;4488129;32;20429;-81
2022/01/20 10:12:03;;;;;;;;;;;;;;;7.31;53.66;98725.09;4487927;32;20043;-85
2022/01/20 10:14:41;;;;;;;;;;;;;;;7.20;53.93;98719.44;4487720;32;19980;-80
2022/01/20 10:17:20;;;;;;;;;;;;;;;7.23;54.60;98716.72;4487662;32;20047;-85
2022/01/20 10:19:45;;;;;;;;;;;;;;;6.82;55.91;98707.03;4487806;32;19980;-84
2022/01/20 10:22:11;;;;;;;;;;;;;;;7.10;56.21;98703.28;4473357;32;19987;-85
2022/01/20 10:24:37;;;;;;;;;;;;;;;6.85;56.93;98699.03;4487628;32;19979;-85
2022/01/20 10:27:07;;;;;;;;;;;;;;;6.93;57.15;98695.25;4487723;32;20232;-84
2022/01/20 10:29:32;;;;;;;;;;;;;;;6.82;57.53;98686.09;4473682;32;20262;-85
2022/01/20 10:31:57;;;;;;;;;;;;;;;6.85;57.68;98685.09;4487489;32;20013;-86
2022/01/20 10:34:30;;;;;;;;;;;;;;;7.13;57.78;98690.06;4487795;32;20269;-87
2022/01/20 10:37:01;;;;;;;;;;;;;;;7.15;57.82;98684.75;4460287;32;20010;-87
2022/01/20 10:39:59;;;;;;;;;;;;;;;6.99;58.46;98681.91;4473491;32;19994;-86
2022/01/20 10:42:26;;;;;;;;;;;;;;;7.25;57.96;98681.66;4423514;32;20036;-85
2022/01/20 10:44:53;;;;;;;;;;;;;;;7.25;58.63;98679.03;4423286;32;20027;-86
2022/01/20 10:47:21;;;;;;;;;;;;;;;7.25;58.64;98679.03;4410830;32;19989;-87
2022/01/20 10:49:46;;;;;;;;;;;;;;;7.22;58.75;98666.09;4397883;32;20059;-89
2022/01/20 10:52:12;;;;;;;;;;;;;;;7.02;59.34;98666.09;4423075;32;20024;-86
2022/01/20 10:54:42;;;;;;;;;;;;;;;7.09;59.26;98665.75;4423410;32;19993;-88
2022/01/20 10:57:08;;;;;;;;;;;;;;;7.21;59.06;98653.06;4423307;32;20004;-85
2022/01/20 10:59:33;;;;;;;;;;;;;;;7.36;59.25;98657.63;4423495;32;20009;-86
2022/01/20 11:02:03;;;;;;;;;;;;;;;7.28;59.44;98642.25;4410591;32;19984;-86
2022/01/20 11:04:29;;;;;;;;;;;;;;;7.13;59.96;98642.91;4410350;32;20460;-87
2022/01/20 11:06:56;;;;;;;;;;;;;;;7.12;60.56;98624.62;4423161;32;20017;-83
2022/01/20 11:09:22;;;;;;;;;;;;;;;7.22;59.81;98624.19;4410828;32;20000;-81
2022/01/20 11:11:49;;;;;;;;;;;;;;;7.28;59.38;98607.31;4410707;32;20016;-86
2022/01/20 11:14:14;;;;;;;;;;;;;;;7.52;58.84;98615.88;4397657;32;20029;-88
2022/01/20 11:16:39;;;;;;;;;;;;;;;7.34;59.24;98612.31;4422050;32;20037;-86
2022/01/20 11:19:15;;;;;;;;;;;;;;;7.43;59.22;98611.03;4457344;32;20363;-87
2022/01/20 11:21:42;;;;;;;;;;;;;;;7.73;58.30;98610.59;4473385;32;20024;-84
2022/01/20 11:24:15;;;;;;;;;;;;;;;7.68;58.68;98614.22;4487733;32;19995;-86
2022/01/20 11:26:56;;;;;;;;;;;;;;;7.89;58.50;98616.81;4487665;32;20025;-85
2022/01/20 11:29:22;;;;;;;;;;;;;;;7.92;57.93;98606.19;4488003;32;20004;-83
2022/01/20 11:31:48;;;;;;;;;;;;;;;7.88;57.73;98588.91;4473191;32;19968;-84
2022/01/20 11:34:16;;;;;;;;;;;;;;;7.54;58.48;98587.81;4493853;31;19976;-82
2022/01/20 11:36:42;;;;;;;;;;;;;;;7.42;58.74;98583.13;4490321;31;20018;-81
2022/01/20 11:39:07;;;;;;;;;;;;;;;7.59;58.91;98571.84;4489217;31;20288;-83
2022/01/20 11:41:35;;;;;;;;;;;;;;;7.75;58.54;98562.38;4503026;31;19979;-85
2022/01/20 11:44:08;;;;;;;;;;;;;;;7.81;58.02;98563.88;4502215;31;20055;-84
2022/01/20 11:46:38;;;;;;;;;;;;;;;7.88;57.90;98550.41;4503043;31;20375;-86
2022/01/20 11:49:08;;;;;;;;;;;;;;;7.97;57.62;98549.09;4499835;31;19968;-87
2022/01/20 11:51:43;;;;;;;;;;;;;;;8.12;57.36;98541.41;4487148;32;19959;-84
2022/01/20 11:54:08;;;;;;;;;;;;;;;8.19;56.94;98545.44;4500167;31;20019;-82
2022/01/20 11:56:37;;;;;;;;;;;;;;;8.17;56.94;98542.03;4503021;31;19986;-85
2022/01/20 11:59:04;;;;;;;;;;;;;;;8.04;56.57;98541.78;4502888;31;19979;-84
2022/01/20 12:01:30;;;;;;;;;;;;;;;7.96;56.71;98538.66;4502741;31;19999;-83
2022/01/20 12:03:56;;;;;;;;;;;;;;;8.10;56.71;98536.25;4499601;31;19971;-81
2022/01/20 12:06:25;;;;;;;;;;;;;;;8.18;56.18;98525.38;4472613;32;19995;-83
2022/01/20 12:08:59;;;;;;;;;;;;;;;8.21;56.32;98528.69;4486915;32;20311;-84
2022/01/20 12:11:45;;;;;;;;;;;;;;;8.11;55.83;98522.19;4487132;32;20334;-87
2022/01/20 12:14:10;;;;;;;;;;;;;;;8.27;55.81;98514.44;4487038;32;19987;-84
2022/01/20 12:16:36;;;;;;;;;;;;;;;8.11;55.74;98509.06;4472650;32;19976;-83
2022/01/20 12:19:01;;;;;;;;;;;;;;;8.16;54.81;98517.56;4472546;32;19976;-82
2022/01/20 12:21:28;;;;;;;;;;;;;;;7.85;55.66;98521.69;4486864;32;20020;-82
2022/01/20 12:23:53;;;;;;;;;;;;;;;7.76;55.84;98522.09;4472454;32;20400;-82
2022/01/20 12:26:19;;;;;;;;;;;;;;;7.94;55.61;98525.66;4472650;32;19988;-84
2022/01/20 12:28:44;;;;;;;;;;;;;;;7.89;55.41;98519.75;4471892;32;20003;-84
2022/01/20 12:31:12;;;;;;;;;;;;;;;7.72;55.97;98511.84;4472737;32;19980;-85
2022/01/20 12:33:40;;;;;;;;;;;;;;;7.67;56.06;98510.31;4472854;32;20324;-84
2022/01/20 12:36:10;;;;;;;;;;;;;;;7.94;55.38;98509.91;4473101;32;20003;-82
2022/01/20 12:38:38;;;;;;;;;;;;;;;8.06;54.96;98506.69;4486957;32;19986;-83
2022/01/20 12:41:11;;;;;;;;;;;;;;;8.13;54.27;98496.75;4472593;32;20022;-84
2022/01/20 12:43:43;;;;;;;;;;;;;;;7.91;54.44;98488.22;4472579;32;19988;-83
2022/01/20 12:46:10;;;;;;;;;;;;;;;8.00;54.10;98479.91;4487093;32;20320;-84
2022/01/20 12:48:35;;;;;;;;;;;;;;;7.81;54.60;98486.03;4486947;32;20362;-82
2022/01/20 12:51:05;;;;;;;;;;;;;;;7.96;54.47;98500.19;4472387;32;19976;-85
2022/01/20 12:53:38;;;;;;;;;;;;;;;8.01;53.59;98477.19;4486659;32;19980;-86
2022/01/20 12:56:04;;;;;;;;;;;;;;;8.07;53.27;98471.66;4486969;32;19992;-90
2022/01/20 12:58:29;;;;;;;;;;;;;;;7.89;53.50;98480.41;4472276;32;20727;-88
2022/01/20 13:01:01;;;;;;;;;;;;;;;7.90;53.45;98471.66;4486604;32;20032;-88
2022/01/20 13:03:36;;;;;;;;;;;;;;;7.96;52.59;98457.34;4486773;32;20250;-88
2022/01/20 13:06:02;;;;;;;;;;;;;;;7.94;53.26;98454.81;4486546;32;19975;-88
2022/01/20 13:08:32;;;;;;;;;;;;;;;7.81;53.84;98443.25;4486582;32;20225;-88
2022/01/20 13:11:02;;;;;;;;;;;;;;;7.84;53.80;98448.31;4472199;32;19984;-86
2022/01/20 13:13:27;;;;;;;;;;;;;;;7.81;53.05;98453.72;4486443;32;20027;-85
2022/01/20 13:15:52;;;;;;;;;;;;;;;7.77;53.33;98466.12;4486414;32;20002;-86
2022/01/20 13:18:18;;;;;;;;;;;;;;;7.61;53.26;98471.28;4486632;32;19972;-85
2022/01/20 13:20:52;;;;;;;;;;;;;;;7.63;53.19;98458.06;4486249;32;20015;-85
2022/01/20 13:25:46;;;;;;;;;;;;;;;7.39;52.89;98432.09;4486248;32;20331;-84
2022/01/20 13:28:11;;;;;;;;;;;;;;;7.25;53.09;98439.78;4458523;31;20248;-84
2022/01/20 13:30:41;;;;;;;;;;;;;;;7.10;53.17;98417.75;4489841;31;20027;-83
2022/01/20 13:33:16;;;;;;;;;;;;;;;7.09;53.30;98418.69;4484708;32;19980;-83
2022/01/20 13:35:43;;;;;;;;;;;;;;;6.86;53.65;98414.50;4477815;32;20002;-85
2022/01/20 13:38:08;;;;;;;;;;;;;;;6.94;53.60;98424.63;4471557;32;20033;-84
2022/01/20 13:40:38;;;;;;;;;;;;;;;6.80;53.33;98405.16;4487622;32;19964;-84
2022/01/20 13:45:39;;;;;;;;;;;;;;;6.72;53.47;98422.97;4487901;32;20335;-85
2022/01/20 13:48:04;;;;;;;;;;;;;;;6.94;53.06;98420.25;4487820;32;19990;-85
2022/01/20 13:50:43;;;;;;;;;;;;;;;6.66;53.39;98415.37;4473399;32;20000;-87
2022/01/20 13:53:14;;;;;;;;;;;;;;;7.11;52.72;98398.50;4488162;32;20032;-87
2022/01/20 13:55:40;;;;;;;;;;;;;;;6.76;52.91;98407.97;4487593;32;20387;-87
2022/01/20 13:58:05;;;;;;;;;;;;;;;7.07;52.29;98405.66;4487884;32;19987;-85
2022/01/20 14:00:32;;;;;;;;;;;;;;;6.98;51.69;98389.53;4473494;32;19994;-85
2022/01/20 14:02:57;;;;;;;;;;;;;;;7.11;51.66;98401.13;4473429;32;19991;-84